sensor_id;sensor_type;location;lat;lon;timestamp;P1;durP1;ratioP1;P2;durP2;ratioP2
38693;SDS011;24447;43.460;25.744;2023-04-08T00:01:12;21.17;;;9.05;;
38693;SDS011;24447;43.460;25.744;2023-04-08T00:03:38;23.42;;;9.88;;
38693;SDS011;24447;43.460;25.744;2023-04-08T00:06:04;22.48;;;9.23;;
38693;SDS011;24447;43.460;25.744;2023-04-08T00:08:31;25.33;;;11.07;;
38693;SDS011;24447;43.460;25.744;2023-04-08T00:10:56;25.63;;;10.98;;
38693;SDS011;24447;43.460;25.744;2023-04-08T00:13:22;23.90;;;11.55;;
38693;SDS011;24447;43.460;25.744;2023-04-08T00:15:48;31.58;;;11.82;;
38693;SDS011;24447;43.460;25.744;2023-04-08T00:18:15;23.25;;;10.70;;
38693;SDS011;24447;43.460;25.744;2023-04-08T00:20:42;24.90;;;10.75;;
38693;SDS011;24447;43.460;25.744;2023-04-08T00:23:08;25.67;;;10.27;;
38693;SDS011;24447;43.460;25.744;2023-04-08T00:25:34;25.00;;;11.10;;
38693;SDS011;24447;43.460;25.744;2023-04-08T00:28:00;23.08;;;10.18;;
38693;SDS011;24447;43.460;25.744;2023-04-08T00:30:26;23.35;;;10.40;;
38693;SDS011;24447;43.460;25.744;2023-04-08T00:32:52;24.10;;;10.70;;
38693;SDS011;24447;43.460;25.744;2023-04-08T00:35:19;23.15;;;9.57;;
38693;SDS011;24447;43.460;25.744;2023-04-08T00:37:45;22.80;;;10.38;;
38693;SDS011;24447;43.460;25.744;2023-04-08T00:40:11;19.80;;;10.00;;
38693;SDS011;24447;43.460;25.744;2023-04-08T00:42:37;27.38;;;11.88;;
38693;SDS011;24447;43.460;25.744;2023-04-08T00:45:03;26.83;;;10.73;;
38693;SDS011;24447;43.460;25.744;2023-04-08T00:47:30;24.10;;;11.75;;
38693;SDS011;24447;43.460;25.744;2023-04-08T00:49:56;23.08;;;10.30;;
38693;SDS011;24447;43.460;25.744;2023-04-08T00:52:22;25.00;;;11.48;;
38693;SDS011;24447;43.460;25.744;2023-04-08T00:54:48;76.28;;;33.05;;
38693;SDS011;24447;43.460;25.744;2023-04-08T00:57:13;66.53;;;31.92;;
38693;SDS011;24447;43.460;25.744;2023-04-08T00:59:40;30.58;;;14.07;;
38693;SDS011;24447;43.460;25.744;2023-04-08T01:02:25;36.00;;;14.18;;
38693;SDS011;24447;43.460;25.744;2023-04-08T01:05:04;28.83;;;13.13;;
38693;SDS011;24447;43.460;25.744;2023-04-08T01:10:00;24.02;;;11.27;;
38693;SDS011;24447;43.460;25.744;2023-04-08T01:12:29;27.80;;;11.93;;
38693;SDS011;24447;43.460;25.744;2023-04-08T01:15:02;21.13;;;9.35;;
38693;SDS011;24447;43.460;25.744;2023-04-08T01:17:30;23.40;;;11.20;;
38693;SDS011;24447;43.460;25.744;2023-04-08T01:19:58;25.92;;;12.07;;
38693;SDS011;24447;43.460;25.744;2023-04-08T01:25:04;28.52;;;12.27;;
38693;SDS011;24447;43.460;25.744;2023-04-08T01:27:32;24.73;;;11.35;;
38693;SDS011;24447;43.460;25.744;2023-04-08T01:29:58;27.98;;;11.15;;
38693;SDS011;24447;43.460;25.744;2023-04-08T01:32:25;23.15;;;11.05;;
38693;SDS011;24447;43.460;25.744;2023-04-08T01:34:52;24.75;;;10.57;;
38693;SDS011;24447;43.460;25.744;2023-04-08T01:37:19;27.10;;;12.63;;
38693;SDS011;24447;43.460;25.744;2023-04-08T01:39:46;28.83;;;13.13;;
38693;SDS011;24447;43.460;25.744;2023-04-08T01:42:13;24.55;;;10.82;;
38693;SDS011;24447;43.460;25.744;2023-04-08T01:44:40;24.88;;;11.38;;
38693;SDS011;24447;43.460;25.744;2023-04-08T01:47:07;23.00;;;11.05;;
38693;SDS011;24447;43.460;25.744;2023-04-08T01:49:35;22.95;;;9.90;;
38693;SDS011;24447;43.460;25.744;2023-04-08T01:52:01;23.48;;;10.23;;
38693;SDS011;24447;43.460;25.744;2023-04-08T01:54:28;23.55;;;10.07;;
38693;SDS011;24447;43.460;25.744;2023-04-08T01:56:54;27.17;;;11.05;;
38693;SDS011;24447;43.460;25.744;2023-04-08T01:59:21;22.70;;;10.38;;
38693;SDS011;24447;43.460;25.744;2023-04-08T02:01:49;26.20;;;11.65;;
38693;SDS011;24447;43.460;25.744;2023-04-08T02:04:16;24.08;;;10.93;;
38693;SDS011;24447;43.460;25.744;2023-04-08T02:06:42;21.95;;;9.68;;
38693;SDS011;24447;43.460;25.744;2023-04-08T02:09:08;24.05;;;10.38;;
38693;SDS011;24447;43.460;25.744;2023-04-08T02:11:34;26.60;;;11.93;;
38693;SDS011;24447;43.460;25.744;2023-04-08T02:14:00;26.60;;;11.70;;
38693;SDS011;24447;43.460;25.744;2023-04-08T02:16:49;24.30;;;10.38;;
38693;SDS011;24447;43.460;25.744;2023-04-08T02:19:26;27.40;;;11.45;;
38693;SDS011;24447;43.460;25.744;2023-04-08T02:22:04;24.05;;;10.32;;
38693;SDS011;24447;43.460;25.744;2023-04-08T02:24:36;24.77;;;11.32;;
38693;SDS011;24447;43.460;25.744;2023-04-08T02:27:03;26.70;;;12.40;;
38693;SDS011;24447;43.460;25.744;2023-04-08T02:29:30;27.05;;;11.20;;
38693;SDS011;24447;43.460;25.744;2023-04-08T02:31:56;25.42;;;11.25;;
38693;SDS011;24447;43.460;25.744;2023-04-08T02:34:22;26.48;;;10.60;;
38693;SDS011;24447;43.460;25.744;2023-04-08T02:36:49;31.90;;;12.55;;
38693;SDS011;24447;43.460;25.744;2023-04-08T02:39:16;26.98;;;11.10;;
38693;SDS011;24447;43.460;25.744;2023-04-08T02:41:42;25.85;;;11.18;;
38693;SDS011;24447;43.460;25.744;2023-04-08T02:44:08;26.63;;;10.65;;
38693;SDS011;24447;43.460;25.744;2023-04-08T02:46:34;27.40;;;12.55;;
38693;SDS011;24447;43.460;25.744;2023-04-08T02:49:00;29.98;;;12.32;;
38693;SDS011;24447;43.460;25.744;2023-04-08T02:51:26;27.98;;;12.25;;
38693;SDS011;24447;43.460;25.744;2023-04-08T02:53:52;24.98;;;13.07;;
38693;SDS011;24447;43.460;25.744;2023-04-08T02:56:18;31.88;;;12.77;;
38693;SDS011;24447;43.460;25.744;2023-04-08T02:58:45;27.52;;;12.60;;
38693;SDS011;24447;43.460;25.744;2023-04-08T03:01:11;31.80;;;14.05;;
38693;SDS011;24447;43.460;25.744;2023-04-08T03:03:37;27.83;;;11.43;;
38693;SDS011;24447;43.460;25.744;2023-04-08T03:06:03;28.35;;;12.30;;
38693;SDS011;24447;43.460;25.744;2023-04-08T03:08:29;27.33;;;12.32;;
38693;SDS011;24447;43.460;25.744;2023-04-08T03:10:55;27.23;;;11.70;;
38693;SDS011;24447;43.460;25.744;2023-04-08T03:13:21;27.02;;;11.15;;
38693;SDS011;24447;43.460;25.744;2023-04-08T03:15:47;26.55;;;12.27;;
38693;SDS011;24447;43.460;25.744;2023-04-08T03:18:13;24.90;;;11.70;;
38693;SDS011;24447;43.460;25.744;2023-04-08T03:20:38;25.60;;;11.70;;
38693;SDS011;24447;43.460;25.744;2023-04-08T03:23:04;26.80;;;12.18;;
38693;SDS011;24447;43.460;25.744;2023-04-08T03:25:30;26.17;;;11.30;;
38693;SDS011;24447;43.460;25.744;2023-04-08T03:27:57;28.80;;;13.00;;
38693;SDS011;24447;43.460;25.744;2023-04-08T03:30:23;24.55;;;11.02;;
38693;SDS011;24447;43.460;25.744;2023-04-08T03:32:49;29.88;;;11.65;;
38693;SDS011;24447;43.460;25.744;2023-04-08T03:35:15;28.65;;;13.35;;
38693;SDS011;24447;43.460;25.744;2023-04-08T03:37:40;24.02;;;11.57;;
38693;SDS011;24447;43.460;25.744;2023-04-08T03:40:07;26.95;;;12.52;;
38693;SDS011;24447;43.460;25.744;2023-04-08T03:42:33;27.95;;;11.15;;
38693;SDS011;24447;43.460;25.744;2023-04-08T03:44:59;26.67;;;11.80;;
38693;SDS011;24447;43.460;25.744;2023-04-08T03:47:25;25.88;;;12.05;;
38693;SDS011;24447;43.460;25.744;2023-04-08T03:49:52;24.92;;;11.57;;
38693;SDS011;24447;43.460;25.744;2023-04-08T03:52:21;23.23;;;11.15;;
38693;SDS011;24447;43.460;25.744;2023-04-08T03:54:47;27.73;;;11.70;;
38693;SDS011;24447;43.460;25.744;2023-04-08T03:57:13;25.15;;;11.82;;
38693;SDS011;24447;43.460;25.744;2023-04-08T03:59:40;24.40;;;10.85;;
38693;SDS011;24447;43.460;25.744;2023-04-08T04:02:06;23.85;;;11.50;;
38693;SDS011;24447;43.460;25.744;2023-04-08T04:04:31;27.13;;;10.98;;
38693;SDS011;24447;43.460;25.744;2023-04-08T04:06:58;26.92;;;12.93;;
38693;SDS011;24447;43.460;25.744;2023-04-08T04:09:24;24.38;;;10.80;;
38693;SDS011;24447;43.460;25.744;2023-04-08T04:11:50;26.02;;;10.45;;
38693;SDS011;24447;43.460;25.744;2023-04-08T04:14:16;27.05;;;12.05;;
38693;SDS011;24447;43.460;25.744;2023-04-08T04:16:42;27.05;;;11.90;;
38693;SDS011;24447;43.460;25.744;2023-04-08T04:19:07;26.20;;;12.13;;
38693;SDS011;24447;43.460;25.744;2023-04-08T04:21:33;43.88;;;11.63;;
38693;SDS011;24447;43.460;25.744;2023-04-08T04:23:59;26.98;;;11.90;;
38693;SDS011;24447;43.460;25.744;2023-04-08T04:26:25;24.45;;;11.63;;
38693;SDS011;24447;43.460;25.744;2023-04-08T04:28:51;26.25;;;12.10;;
38693;SDS011;24447;43.460;25.744;2023-04-08T04:31:20;29.92;;;12.00;;
38693;SDS011;24447;43.460;25.744;2023-04-08T04:33:47;28.30;;;12.40;;
38693;SDS011;24447;43.460;25.744;2023-04-08T04:36:14;25.20;;;11.15;;
38693;SDS011;24447;43.460;25.744;2023-04-08T04:38:40;32.88;;;15.27;;
38693;SDS011;24447;43.460;25.744;2023-04-08T04:41:07;46.75;;;24.63;;
38693;SDS011;24447;43.460;25.744;2023-04-08T04:43:33;48.17;;;23.27;;
38693;SDS011;24447;43.460;25.744;2023-04-08T04:45:59;40.22;;;20.98;;
38693;SDS011;24447;43.460;25.744;2023-04-08T04:48:26;36.00;;;17.52;;
38693;SDS011;24447;43.460;25.744;2023-04-08T04:50:55;62.72;;;29.52;;
38693;SDS011;24447;43.460;25.744;2023-04-08T04:53:22;49.30;;;25.00;;
38693;SDS011;24447;43.460;25.744;2023-04-08T04:55:48;50.25;;;24.45;;
38693;SDS011;24447;43.460;25.744;2023-04-08T04:58:15;86.18;;;40.35;;
38693;SDS011;24447;43.460;25.744;2023-04-08T05:00:41;52.85;;;24.35;;
38693;SDS011;24447;43.460;25.744;2023-04-08T05:03:07;44.33;;;23.52;;
38693;SDS011;24447;43.460;25.744;2023-04-08T05:05:33;53.67;;;26.30;;
38693;SDS011;24447;43.460;25.744;2023-04-08T05:07:59;51.30;;;25.42;;
38693;SDS011;24447;43.460;25.744;2023-04-08T05:10:26;50.75;;;23.52;;
38693;SDS011;24447;43.460;25.744;2023-04-08T05:12:51;49.28;;;25.17;;
38693;SDS011;24447;43.460;25.744;2023-04-08T05:15:17;45.05;;;23.55;;
38693;SDS011;24447;43.460;25.744;2023-04-08T05:17:44;32.97;;;16.90;;
38693;SDS011;24447;43.460;25.744;2023-04-08T05:20:09;30.10;;;14.05;;
38693;SDS011;24447;43.460;25.744;2023-04-08T05:22:35;29.02;;;10.85;;
38693;SDS011;24447;43.460;25.744;2023-04-08T05:25:01;30.20;;;12.98;;
38693;SDS011;24447;43.460;25.744;2023-04-08T05:27:28;24.00;;;10.98;;
38693;SDS011;24447;43.460;25.744;2023-04-08T05:29:53;24.65;;;10.80;;
38693;SDS011;24447;43.460;25.744;2023-04-08T05:32:19;21.42;;;9.18;;
38693;SDS011;24447;43.460;25.744;2023-04-08T05:34:45;23.00;;;11.30;;
38693;SDS011;24447;43.460;25.744;2023-04-08T05:37:11;28.35;;;9.93;;
38693;SDS011;24447;43.460;25.744;2023-04-08T05:39:37;22.15;;;9.43;;
38693;SDS011;24447;43.460;25.744;2023-04-08T05:42:03;21.77;;;9.20;;
38693;SDS011;24447;43.460;25.744;2023-04-08T05:44:29;19.83;;;9.07;;
38693;SDS011;24447;43.460;25.744;2023-04-08T05:46:55;19.10;;;8.98;;
38693;SDS011;24447;43.460;25.744;2023-04-08T05:49:22;21.17;;;9.45;;
38693;SDS011;24447;43.460;25.744;2023-04-08T05:51:48;18.10;;;8.55;;
38693;SDS011;24447;43.460;25.744;2023-04-08T05:54:14;18.83;;;8.13;;
38693;SDS011;24447;43.460;25.744;2023-04-08T05:56:40;18.80;;;8.38;;
38693;SDS011;24447;43.460;25.744;2023-04-08T05:59:06;23.75;;;9.50;;
38693;SDS011;24447;43.460;25.744;2023-04-08T06:01:32;16.73;;;8.15;;
38693;SDS011;24447;43.460;25.744;2023-04-08T06:03:58;23.13;;;9.18;;
38693;SDS011;24447;43.460;25.744;2023-04-08T06:06:23;20.95;;;9.52;;
38693;SDS011;24447;43.460;25.744;2023-04-08T06:08:50;17.17;;;7.40;;
38693;SDS011;24447;43.460;25.744;2023-04-08T06:11:16;20.38;;;9.60;;
38693;SDS011;24447;43.460;25.744;2023-04-08T06:13:42;19.27;;;8.85;;
38693;SDS011;24447;43.460;25.744;2023-04-08T06:16:12;21.20;;;9.65;;
38693;SDS011;24447;43.460;25.744;2023-04-08T06:18:39;23.15;;;9.15;;
38693;SDS011;24447;43.460;25.744;2023-04-08T06:21:05;20.77;;;8.80;;
38693;SDS011;24447;43.460;25.744;2023-04-08T06:23:31;23.75;;;9.02;;
38693;SDS011;24447;43.460;25.744;2023-04-08T06:25:57;20.30;;;8.38;;
38693;SDS011;24447;43.460;25.744;2023-04-08T06:28:23;19.67;;;9.02;;
38693;SDS011;24447;43.460;25.744;2023-04-08T06:30:49;20.10;;;8.68;;
38693;SDS011;24447;43.460;25.744;2023-04-08T06:33:15;19.88;;;8.90;;
38693;SDS011;24447;43.460;25.744;2023-04-08T06:35:41;22.02;;;8.95;;
38693;SDS011;24447;43.460;25.744;2023-04-08T06:38:07;19.48;;;8.43;;
38693;SDS011;24447;43.460;25.744;2023-04-08T06:40:33;20.80;;;9.07;;
38693;SDS011;24447;43.460;25.744;2023-04-08T06:42:59;19.52;;;8.48;;
38693;SDS011;24447;43.460;25.744;2023-04-08T06:45:25;18.00;;;8.13;;
38693;SDS011;24447;43.460;25.744;2023-04-08T06:47:51;18.63;;;7.95;;
38693;SDS011;24447;43.460;25.744;2023-04-08T06:50:17;19.95;;;8.10;;
38693;SDS011;24447;43.460;25.744;2023-04-08T06:52:43;19.27;;;7.68;;
38693;SDS011;24447;43.460;25.744;2023-04-08T06:55:08;19.85;;;9.02;;
38693;SDS011;24447;43.460;25.744;2023-04-08T06:57:35;20.20;;;9.13;;
38693;SDS011;24447;43.460;25.744;2023-04-08T07:00:00;18.30;;;9.00;;
38693;SDS011;24447;43.460;25.744;2023-04-08T07:02:26;22.35;;;8.90;;
38693;SDS011;24447;43.460;25.744;2023-04-08T07:04:52;27.63;;;11.45;;
38693;SDS011;24447;43.460;25.744;2023-04-08T07:07:18;21.48;;;9.00;;
38693;SDS011;24447;43.460;25.744;2023-04-08T07:09:44;20.02;;;9.27;;
38693;SDS011;24447;43.460;25.744;2023-04-08T07:12:11;23.45;;;8.18;;
38693;SDS011;24447;43.460;25.744;2023-04-08T07:14:37;17.67;;;8.15;;
38693;SDS011;24447;43.460;25.744;2023-04-08T07:17:03;20.83;;;8.52;;
38693;SDS011;24447;43.460;25.744;2023-04-08T07:19:29;19.27;;;7.68;;
38693;SDS011;24447;43.460;25.744;2023-04-08T07:21:55;17.98;;;8.27;;
38693;SDS011;24447;43.460;25.744;2023-04-08T07:24:22;19.85;;;7.82;;
38693;SDS011;24447;43.460;25.744;2023-04-08T07:26:48;21.42;;;8.68;;
38693;SDS011;24447;43.460;25.744;2023-04-08T07:29:14;18.77;;;8.55;;
38693;SDS011;24447;43.460;25.744;2023-04-08T07:31:41;19.83;;;8.00;;
38693;SDS011;24447;43.460;25.744;2023-04-08T07:34:08;19.55;;;9.02;;
38693;SDS011;24447;43.460;25.744;2023-04-08T07:36:34;18.23;;;8.02;;
38693;SDS011;24447;43.460;25.744;2023-04-08T07:39:00;18.73;;;7.60;;
38693;SDS011;24447;43.460;25.744;2023-04-08T07:41:27;18.77;;;7.57;;
38693;SDS011;24447;43.460;25.744;2023-04-08T07:43:53;16.63;;;7.30;;
38693;SDS011;24447;43.460;25.744;2023-04-08T07:46:19;20.77;;;8.75;;
38693;SDS011;24447;43.460;25.744;2023-04-08T07:48:45;21.35;;;8.35;;
38693;SDS011;24447;43.460;25.744;2023-04-08T07:51:11;18.90;;;7.85;;
38693;SDS011;24447;43.460;25.744;2023-04-08T07:53:38;16.73;;;7.75;;
38693;SDS011;24447;43.460;25.744;2023-04-08T07:56:11;19.85;;;8.65;;
38693;SDS011;24447;43.460;25.744;2023-04-08T07:58:38;16.42;;;7.10;;
38693;SDS011;24447;43.460;25.744;2023-04-08T08:01:13;19.63;;;8.02;;
38693;SDS011;24447;43.460;25.744;2023-04-08T08:03:51;20.60;;;7.65;;
38693;SDS011;24447;43.460;25.744;2023-04-08T08:06:17;18.38;;;7.60;;
38693;SDS011;24447;43.460;25.744;2023-04-08T08:08:43;17.42;;;7.47;;
38693;SDS011;24447;43.460;25.744;2023-04-08T08:11:09;15.93;;;7.53;;
38693;SDS011;24447;43.460;25.744;2023-04-08T08:13:35;16.55;;;7.13;;
38693;SDS011;24447;43.460;25.744;2023-04-08T08:16:01;19.50;;;9.10;;
38693;SDS011;24447;43.460;25.744;2023-04-08T08:18:27;17.35;;;7.60;;
38693;SDS011;24447;43.460;25.744;2023-04-08T08:20:53;16.50;;;7.53;;
38693;SDS011;24447;43.460;25.744;2023-04-08T08:23:19;16.40;;;7.28;;
38693;SDS011;24447;43.460;25.744;2023-04-08T08:25:45;17.23;;;6.82;;
38693;SDS011;24447;43.460;25.744;2023-04-08T08:28:11;19.77;;;7.25;;
38693;SDS011;24447;43.460;25.744;2023-04-08T08:30:37;15.98;;;6.90;;
38693;SDS011;24447;43.460;25.744;2023-04-08T08:33:03;12.20;;;6.60;;
38693;SDS011;24447;43.460;25.744;2023-04-08T08:35:28;14.02;;;6.43;;
38693;SDS011;24447;43.460;25.744;2023-04-08T08:37:54;17.30;;;6.30;;
38693;SDS011;24447;43.460;25.744;2023-04-08T08:40:20;16.05;;;7.22;;
38693;SDS011;24447;43.460;25.744;2023-04-08T08:42:50;15.27;;;7.40;;
38693;SDS011;24447;43.460;25.744;2023-04-08T08:45:17;21.08;;;8.23;;
38693;SDS011;24447;43.460;25.744;2023-04-08T08:47:44;17.25;;;8.23;;
38693;SDS011;24447;43.460;25.744;2023-04-08T08:50:10;16.02;;;6.90;;
38693;SDS011;24447;43.460;25.744;2023-04-08T08:52:36;14.18;;;7.18;;
38693;SDS011;24447;43.460;25.744;2023-04-08T08:55:02;16.40;;;7.50;;
38693;SDS011;24447;43.460;25.744;2023-04-08T08:57:28;15.13;;;7.15;;
38693;SDS011;24447;43.460;25.744;2023-04-08T08:59:54;15.38;;;7.05;;
38693;SDS011;24447;43.460;25.744;2023-04-08T09:02:23;17.73;;;7.38;;
38693;SDS011;24447;43.460;25.744;2023-04-08T09:05:02;17.20;;;7.13;;
38693;SDS011;24447;43.460;25.744;2023-04-08T09:07:30;16.25;;;7.57;;
38693;SDS011;24447;43.460;25.744;2023-04-08T09:09:57;16.52;;;7.93;;
38693;SDS011;24447;43.460;25.744;2023-04-08T09:12:24;14.80;;;7.03;;
38693;SDS011;24447;43.460;25.744;2023-04-08T09:15:02;16.83;;;7.18;;
38693;SDS011;24447;43.460;25.744;2023-04-08T09:17:35;16.85;;;7.20;;
38693;SDS011;24447;43.460;25.744;2023-04-08T09:20:03;14.55;;;7.03;;
38693;SDS011;24447;43.460;25.744;2023-04-08T09:27:53;15.10;;;6.90;;
38693;SDS011;24447;43.460;25.744;2023-04-08T09:30:23;18.65;;;8.13;;
38693;SDS011;24447;43.460;25.744;2023-04-08T09:32:50;19.17;;;6.95;;
38693;SDS011;24447;43.460;25.744;2023-04-08T09:35:20;17.52;;;7.32;;
38693;SDS011;24447;43.460;25.744;2023-04-08T09:37:47;15.50;;;7.05;;
38693;SDS011;24447;43.460;25.744;2023-04-08T09:40:13;16.02;;;7.45;;
38693;SDS011;24447;43.460;25.744;2023-04-08T09:42:42;17.52;;;7.57;;
38693;SDS011;24447;43.460;25.744;2023-04-08T09:45:14;23.05;;;10.13;;
38693;SDS011;24447;43.460;25.744;2023-04-08T09:48:26;17.67;;;6.95;;
38693;SDS011;24447;43.460;25.744;2023-04-08T09:50:56;17.50;;;6.75;;
38693;SDS011;24447;43.460;25.744;2023-04-08T09:53:34;15.45;;;7.95;;
38693;SDS011;24447;43.460;25.744;2023-04-08T09:56:03;13.95;;;7.57;;
38693;SDS011;24447;43.460;25.744;2023-04-08T09:58:34;15.70;;;7.22;;
38693;SDS011;24447;43.460;25.744;2023-04-08T10:01:04;15.98;;;6.38;;
38693;SDS011;24447;43.460;25.744;2023-04-08T10:03:34;20.55;;;8.15;;
38693;SDS011;24447;43.460;25.744;2023-04-08T10:08:27;17.25;;;7.05;;
38693;SDS011;24447;43.460;25.744;2023-04-08T10:10:55;13.57;;;6.45;;
38693;SDS011;24447;43.460;25.744;2023-04-08T10:13:21;15.13;;;5.70;;
38693;SDS011;24447;43.460;25.744;2023-04-08T10:15:48;19.15;;;7.85;;
38693;SDS011;24447;43.460;25.744;2023-04-08T10:20:43;18.25;;;7.28;;
38693;SDS011;24447;43.460;25.744;2023-04-08T10:30:43;16.45;;;7.00;;
38693;SDS011;24447;43.460;25.744;2023-04-08T10:33:10;16.42;;;6.80;;
38693;SDS011;24447;43.460;25.744;2023-04-08T10:35:40;14.02;;;6.07;;
38693;SDS011;24447;43.460;25.744;2023-04-08T10:38:13;13.73;;;5.97;;
38693;SDS011;24447;43.460;25.744;2023-04-08T10:40:40;14.00;;;6.53;;
38693;SDS011;24447;43.460;25.744;2023-04-08T10:43:07;11.63;;;5.65;;
38693;SDS011;24447;43.460;25.744;2023-04-08T10:45:34;14.95;;;6.78;;
38693;SDS011;24447;43.460;25.744;2023-04-08T10:51:00;15.32;;;6.93;;
38693;SDS011;24447;43.460;25.744;2023-04-08T10:53:27;14.75;;;6.63;;
38693;SDS011;24447;43.460;25.744;2023-04-08T10:58:47;15.68;;;6.25;;
38693;SDS011;24447;43.460;25.744;2023-04-08T11:01:15;12.00;;;6.20;;
38693;SDS011;24447;43.460;25.744;2023-04-08T11:03:41;13.80;;;6.05;;
38693;SDS011;24447;43.460;25.744;2023-04-08T11:06:08;13.32;;;5.97;;
38693;SDS011;24447;43.460;25.744;2023-04-08T11:08:34;15.73;;;6.05;;
38693;SDS011;24447;43.460;25.744;2023-04-08T11:11:01;10.65;;;5.55;;
38693;SDS011;24447;43.460;25.744;2023-04-08T11:13:35;11.77;;;5.28;;
38693;SDS011;24447;43.460;25.744;2023-04-08T11:16:06;13.60;;;6.38;;
38693;SDS011;24447;43.460;25.744;2023-04-08T11:18:39;12.15;;;6.00;;
38693;SDS011;24447;43.460;25.744;2023-04-08T11:21:11;13.73;;;6.35;;
38693;SDS011;24447;43.460;25.744;2023-04-08T11:23:37;11.85;;;5.65;;
38693;SDS011;24447;43.460;25.744;2023-04-08T11:26:03;12.07;;;5.65;;
38693;SDS011;24447;43.460;25.744;2023-04-08T11:28:29;14.50;;;6.03;;
38693;SDS011;24447;43.460;25.744;2023-04-08T11:30:55;17.95;;;7.20;;
38693;SDS011;24447;43.460;25.744;2023-04-08T11:33:24;12.77;;;6.07;;
38693;SDS011;24447;43.460;25.744;2023-04-08T11:35:53;13.40;;;5.82;;
38693;SDS011;24447;43.460;25.744;2023-04-08T11:38:22;12.55;;;5.53;;
38693;SDS011;24447;43.460;25.744;2023-04-08T11:40:52;13.63;;;6.25;;
38693;SDS011;24447;43.460;25.744;2023-04-08T11:43:19;15.67;;;6.63;;
38693;SDS011;24447;43.460;25.744;2023-04-08T11:45:45;15.13;;;6.00;;
38693;SDS011;24447;43.460;25.744;2023-04-08T11:48:12;13.02;;;5.65;;
38693;SDS011;24447;43.460;25.744;2023-04-08T11:50:39;19.30;;;8.60;;
38693;SDS011;24447;43.460;25.744;2023-04-08T11:53:18;20.67;;;7.85;;
38693;SDS011;24447;43.460;25.744;2023-04-08T11:55:50;12.63;;;5.65;;
38693;SDS011;24447;43.460;25.744;2023-04-08T11:58:17;11.98;;;5.38;;
38693;SDS011;24447;43.460;25.744;2023-04-08T12:00:43;13.82;;;5.70;;
38693;SDS011;24447;43.460;25.744;2023-04-08T12:03:09;14.05;;;6.45;;
38693;SDS011;24447;43.460;25.744;2023-04-08T12:05:36;12.32;;;5.72;;
38693;SDS011;24447;43.460;25.744;2023-04-08T12:08:02;10.82;;;5.55;;
38693;SDS011;24447;43.460;25.744;2023-04-08T12:10:28;9.38;;;5.55;;
38693;SDS011;24447;43.460;25.744;2023-04-08T12:12:54;12.10;;;5.32;;
38693;SDS011;24447;43.460;25.744;2023-04-08T12:15:20;11.30;;;5.43;;
38693;SDS011;24447;43.460;25.744;2023-04-08T12:17:46;14.77;;;6.35;;
38693;SDS011;24447;43.460;25.744;2023-04-08T12:20:12;13.32;;;6.18;;
38693;SDS011;24447;43.460;25.744;2023-04-08T12:22:39;16.35;;;6.95;;
38693;SDS011;24447;43.460;25.744;2023-04-08T12:25:05;18.83;;;7.18;;
38693;SDS011;24447;43.460;25.744;2023-04-08T12:27:32;21.08;;;8.38;;
38693;SDS011;24447;43.460;25.744;2023-04-08T12:29:58;23.80;;;11.07;;
38693;SDS011;24447;43.460;25.744;2023-04-08T12:32:24;20.65;;;7.93;;
38693;SDS011;24447;43.460;25.744;2023-04-08T12:34:50;17.73;;;7.32;;
38693;SDS011;24447;43.460;25.744;2023-04-08T12:37:17;16.60;;;7.72;;
38693;SDS011;24447;43.460;25.744;2023-04-08T12:39:42;18.60;;;8.10;;
38693;SDS011;24447;43.460;25.744;2023-04-08T12:42:08;22.83;;;11.05;;
38693;SDS011;24447;43.460;25.744;2023-04-08T12:44:35;23.05;;;10.55;;
38693;SDS011;24447;43.460;25.744;2023-04-08T12:47:00;22.67;;;10.32;;
38693;SDS011;24447;43.460;25.744;2023-04-08T12:49:26;19.38;;;8.80;;
38693;SDS011;24447;43.460;25.744;2023-04-08T12:51:52;23.77;;;10.43;;
38693;SDS011;24447;43.460;25.744;2023-04-08T12:54:19;28.55;;;14.00;;
38693;SDS011;24447;43.460;25.744;2023-04-08T12:56:45;29.33;;;12.05;;
38693;SDS011;24447;43.460;25.744;2023-04-08T12:59:12;26.25;;;13.27;;
38693;SDS011;24447;43.460;25.744;2023-04-08T13:01:39;31.42;;;15.93;;
38693;SDS011;24447;43.460;25.744;2023-04-08T13:04:05;34.72;;;15.80;;
38693;SDS011;24447;43.460;25.744;2023-04-08T13:06:31;31.58;;;14.20;;
38693;SDS011;24447;43.460;25.744;2023-04-08T13:08:57;32.10;;;15.13;;
38693;SDS011;24447;43.460;25.744;2023-04-08T13:11:23;34.65;;;15.65;;
38693;SDS011;24447;43.460;25.744;2023-04-08T13:13:49;32.22;;;16.23;;
38693;SDS011;24447;43.460;25.744;2023-04-08T13:16:14;32.95;;;16.38;;
38693;SDS011;24447;43.460;25.744;2023-04-08T13:18:41;33.88;;;17.70;;
38693;SDS011;24447;43.460;25.744;2023-04-08T13:21:07;35.10;;;16.48;;
38693;SDS011;24447;43.460;25.744;2023-04-08T13:23:34;31.55;;;17.13;;
38693;SDS011;24447;43.460;25.744;2023-04-08T13:26:00;27.35;;;15.15;;
38693;SDS011;24447;43.460;25.744;2023-04-08T13:28:26;31.10;;;14.05;;
38693;SDS011;24447;43.460;25.744;2023-04-08T13:30:52;14.77;;;6.80;;
38693;SDS011;24447;43.460;25.744;2023-04-08T13:33:19;9.45;;;4.85;;
38693;SDS011;24447;43.460;25.744;2023-04-08T13:35:46;17.25;;;7.75;;
38693;SDS011;24447;43.460;25.744;2023-04-08T13:38:12;20.73;;;8.18;;
38693;SDS011;24447;43.460;25.744;2023-04-08T13:40:38;18.20;;;7.57;;
38693;SDS011;24447;43.460;25.744;2023-04-08T13:43:04;18.27;;;8.05;;
38693;SDS011;24447;43.460;25.744;2023-04-08T13:45:30;33.92;;;17.50;;
38693;SDS011;24447;43.460;25.744;2023-04-08T13:47:56;29.85;;;13.32;;
38693;SDS011;24447;43.460;25.744;2023-04-08T13:50:22;28.67;;;13.48;;
38693;SDS011;24447;43.460;25.744;2023-04-08T13:52:48;27.00;;;12.73;;
38693;SDS011;24447;43.460;25.744;2023-04-08T13:55:14;21.20;;;10.00;;
38693;SDS011;24447;43.460;25.744;2023-04-08T13:57:40;22.90;;;10.43;;
38693;SDS011;24447;43.460;25.744;2023-04-08T14:00:06;21.65;;;10.65;;
38693;SDS011;24447;43.460;25.744;2023-04-08T14:02:34;22.42;;;10.00;;
38693;SDS011;24447;43.460;25.744;2023-04-08T14:05:00;21.88;;;9.70;;
38693;SDS011;24447;43.460;25.744;2023-04-08T14:07:26;19.30;;;8.35;;
38693;SDS011;24447;43.460;25.744;2023-04-08T14:09:51;21.38;;;9.40;;
38693;SDS011;24447;43.460;25.744;2023-04-08T14:12:17;20.27;;;9.85;;
38693;SDS011;24447;43.460;25.744;2023-04-08T14:14:43;14.90;;;7.18;;
38693;SDS011;24447;43.460;25.744;2023-04-08T14:17:09;20.65;;;9.95;;
38693;SDS011;24447;43.460;25.744;2023-04-08T14:19:35;23.15;;;12.35;;
38693;SDS011;24447;43.460;25.744;2023-04-08T14:22:01;17.60;;;8.57;;
38693;SDS011;24447;43.460;25.744;2023-04-08T14:24:27;15.45;;;6.85;;
38693;SDS011;24447;43.460;25.744;2023-04-08T14:26:53;16.15;;;7.82;;
38693;SDS011;24447;43.460;25.744;2023-04-08T14:29:19;15.13;;;6.65;;
38693;SDS011;24447;43.460;25.744;2023-04-08T14:31:45;15.55;;;7.35;;
38693;SDS011;24447;43.460;25.744;2023-04-08T14:34:11;16.23;;;7.40;;
38693;SDS011;24447;43.460;25.744;2023-04-08T14:36:37;15.77;;;6.93;;
38693;SDS011;24447;43.460;25.744;2023-04-08T14:39:03;17.17;;;7.82;;
38693;SDS011;24447;43.460;25.744;2023-04-08T14:41:29;15.70;;;7.05;;
38693;SDS011;24447;43.460;25.744;2023-04-08T14:43:55;18.73;;;8.25;;